Time;durP1;ratioP1;P1;durP2;ratioP2;P2;SDS_P1;SDS_P2;PMS_P1;PMS_P2;Temp;Humidity;BMP_temperature;BMP_pressure;BME280_temperature;BME280_humidity;BME280_pressure;Samples;Min_cycle;Max_cycle;Signal;HPM_P1;HPM_P2
2023/03/13 00:01:31;;;;;;;37.30;6.70;;;8.80;99.90;;;;;;5061933;28;20077;-66
2023/03/13 00:03:57;;;;;;;28.25;5.70;;;8.80;99.90;;;;;;5083085;28;20040;-67
2023/03/13 00:06:26;;;;;;;38.00;6.50;;;8.70;99.90;;;;;;5080645;28;20537;-66
2023/03/13 00:08:51;;;;;;;29.65;6.20;;;8.70;99.90;;;;;;5063515;28;20079;-66
2023/03/13 00:11:18;;;;;;;33.17;6.60;;;8.70;99.90;;;;;;5083668;28;20040;-67
2023/03/13 00:13:44;;;;;;;30.67;5.43;;;8.70;99.90;;;;;;5071291;28;20125;-67
2023/03/13 00:16:13;;;;;;;33.00;5.38;;;8.70;99.90;;;;;;5082241;28;20045;-67
2023/03/13 00:18:43;;;;;;;33.80;5.90;;;8.70;99.90;;;;;;5071706;28;20398;-67
2023/03/13 00:21:09;;;;;;;37.80;6.78;;;8.70;99.90;;;;;;5071508;28;20040;-67
2023/03/13 00:23:36;;;;;;;39.33;6.07;;;8.70;99.90;;;;;;5072788;28;20044;-67
2023/03/13 00:26:08;;;;;;;33.03;5.10;;;8.70;99.90;;;;;;5071641;28;20536;-67
2023/03/13 00:28:35;;;;;;;39.42;6.95;;;8.60;99.90;;;;;;5070574;28;20539;-67
2023/03/13 00:31:16;;;;;;;29.05;5.85;;;8.60;99.90;;;;;;5065318;28;20039;-67
2023/03/13 00:33:44;;;;;;;41.17;6.45;;;8.60;99.90;;;;;;5067346;28;20052;-68
2023/03/13 00:36:13;;;;;;;35.03;6.13;;;8.60;99.90;;;;;;5072728;28;20045;-67
2023/03/13 00:38:38;;;;;;;30.27;5.45;;;8.60;99.90;;;;;;5070803;28;20101;-68
2023/03/13 00:41:11;;;;;;;27.85;5.70;;;8.60;99.90;;;;;;5085717;28;20647;-67
2023/03/13 00:43:38;;;;;;;30.67;6.18;;;8.50;99.90;;;;;;5098550;28;20051;-67
2023/03/13 00:46:04;;;;;;;33.08;5.50;;;8.60;99.90;;;;;;5092036;28;20059;-67
2023/03/13 00:48:31;;;;;;;37.80;6.97;;;8.60;99.90;;;;;;5074784;28;20094;-67
2023/03/13 00:50:57;;;;;;;27.38;5.20;;;8.50;99.90;;;;;;5066618;28;20057;-67
2023/03/13 00:53:23;;;;;;;31.05;5.18;;;8.50;99.90;;;;;;5071798;28;20150;-67
2023/03/13 00:56:00;;;;;;;34.15;6.00;;;8.60;99.90;;;;;;5065920;28;20048;-68
2023/03/13 00:58:28;;;;;;;36.85;5.28;;;8.60;99.90;;;;;;5071578;28;20048;-68
2023/03/13 01:00:54;;;;;;;31.92;6.63;;;8.60;99.90;;;;;;5048214;28;20040;-68
2023/03/13 01:03:24;;;;;;;38.10;5.82;;;8.60;99.90;;;;;;5065107;28;20143;-68
2023/03/13 01:05:57;;;;;;;25.95;5.47;;;8.50;99.90;;;;;;5069853;28;20044;-68
2023/03/13 01:08:23;;;;;;;28.50;4.70;;;8.50;99.90;;;;;;5065906;28;20092;-68
2023/03/13 01:10:49;;;;;;;28.92;5.38;;;8.50;99.90;;;;;;5067267;28;20032;-67
2023/03/13 01:13:15;;;;;;;28.60;5.05;;;8.50;99.90;;;;;;5061055;28;20036;-67
2023/03/13 01:15:41;;;;;;;24.27;4.88;;;8.60;99.90;;;;;;5067922;28;20157;-66
2023/03/13 01:18:06;;;;;;;32.17;6.15;;;8.50;99.90;;;;;;5064085;28;20102;-67
2023/03/13 01:20:32;;;;;;;36.10;7.05;;;8.50;99.90;;;;;;5087596;28;20085;-67
2023/03/13 01:22:58;;;;;;;24.40;5.72;;;8.50;99.90;;;;;;5065771;28;20051;-66
2023/03/13 01:25:23;;;;;;;29.88;5.88;;;8.60;99.90;;;;;;5067050;28;20414;-67
2023/03/13 01:27:49;;;;;;;24.27;4.88;;;8.60;99.90;;;;;;5064455;28;20036;-67
2023/03/13 01:30:15;;;;;;;29.45;5.25;;;8.60;99.90;;;;;;5066826;28;20032;-66
2023/03/13 01:32:41;;;;;;;30.30;5.35;;;8.60;99.90;;;;;;5081265;28;20051;-65
2023/03/13 01:35:07;;;;;;;29.50;5.30;;;8.60;99.90;;;;;;5068874;28;20114;-66
2023/03/13 01:41:13;;;;;;;29.58;5.47;;;8.60;99.90;;;;;;5084464;28;20063;-65
2023/03/13 01:43:39;;;;;;;24.98;4.90;;;8.50;99.90;;;;;;5081790;28;20538;-66
2023/03/13 01:46:26;;;;;;;38.58;6.00;;;8.60;99.90;;;;;;5085653;28;20479;-67
2023/03/13 01:49:07;;;;;;;28.10;5.38;;;8.60;99.90;;;;;;5053030;28;20051;-68
2023/03/13 01:51:48;;;;;;;31.50;5.57;;;8.60;99.90;;;;;;5064204;28;20437;-66
2023/03/13 01:54:38;;;;;;;25.98;4.93;;;8.70;99.90;;;;;;5099634;28;20373;-67
2023/03/13 01:57:37;;;;;;;29.70;6.35;;;8.70;99.90;;;;;;5072076;28;20043;-67
2023/03/13 02:00:20;;;;;;;29.80;5.68;;;8.70;99.90;;;;;;5065555;28;20478;-67
2023/03/13 02:02:50;;;;;;;27.67;5.35;;;8.70;99.90;;;;;;5086617;28;20047;-67
2023/03/13 02:05:19;;;;;;;30.83;5.80;;;8.70;99.90;;;;;;5062689;28;20047;-67
2023/03/13 02:07:55;;;;;;;32.92;5.50;;;8.70;99.90;;;;;;5070219;28;20039;-68
2023/03/13 02:10:23;;;;;;;28.92;5.28;;;8.70;99.90;;;;;;5070244;28;20100;-68
2023/03/13 02:12:50;;;;;;;29.27;6.13;;;8.70;99.90;;;;;;5062568;28;20044;-68
2023/03/13 02:15:19;;;;;;;23.25;4.40;;;8.70;99.90;;;;;;5096894;28;20060;-68
2023/03/13 02:17:47;;;;;;;27.20;5.75;;;8.70;99.90;;;;;;5068551;28;20051;-68
2023/03/13 02:20:15;;;;;;;23.38;5.30;;;8.70;99.90;;;;;;5068208;28;20085;-69
2023/03/13 02:23:02;;;;;;;29.58;5.20;;;8.60;99.90;;;;;;5061308;28;20051;-69
2023/03/13 02:25:35;;;;;;;28.60;5.13;;;8.70;99.90;;;;;;5061329;28;20094;-69
2023/03/13 02:28:06;;;;;;;26.75;5.00;;;8.70;99.90;;;;;;5064637;28;20036;-69
2023/03/13 02:30:33;;;;;;;20.27;4.40;;;8.60;99.90;;;;;;5058846;28;20101;-69
2023/03/13 02:33:00;;;;;;;24.75;5.22;;;8.70;99.90;;;;;;5097045;28;20045;-69
2023/03/13 02:35:26;;;;;;;20.65;4.40;;;8.70;99.90;;;;;;5067849;28;20436;-68
2023/03/13 02:37:56;;;;;;;18.23;4.75;;;8.70;99.90;;;;;;5071263;28;20459;-68
2023/03/13 02:40:28;;;;;;;25.55;4.90;;;8.60;99.90;;;;;;5065869;28;20074;-68
2023/03/13 02:42:57;;;;;;;23.08;4.50;;;8.60;99.90;;;;;;5094957;28;20048;-68
2023/03/13 02:45:22;;;;;;;26.30;4.65;;;8.70;99.90;;;;;;5065151;28;20035;-69
2023/03/13 02:47:48;;;;;;;19.55;5.00;;;8.70;99.90;;;;;;5062355;28;20111;-68
2023/03/13 02:50:15;;;;;;;20.17;5.05;;;8.70;99.90;;;;;;5077337;28;20120;-67
2023/03/13 02:52:45;;;;;;;18.95;4.28;;;8.70;99.90;;;;;;5071036;28;20079;-67
2023/03/13 02:55:17;;;;;;;19.42;4.35;;;8.70;99.90;;;;;;5078801;28;20442;-67
2023/03/13 02:57:43;;;;;;;18.38;4.25;;;8.70;99.90;;;;;;5077853;28;20032;-67
2023/03/13 03:00:11;;;;;;;18.15;3.85;;;8.80;99.90;;;;;;5051637;28;20065;-67
2023/03/13 03:02:38;;;;;;;10.48;3.47;;;8.80;99.90;;;;;;5071459;28;20071;-68
2023/03/13 03:05:04;;;;;;;16.58;3.63;;;8.80;99.90;;;;;;5065544;28;20552;-67
2023/03/13 03:07:30;;;;;;;12.32;3.45;;;8.80;99.90;;;;;;5077863;28;20497;-68
2023/03/13 03:09:56;;;;;;;14.05;3.28;;;8.80;99.90;;;;;;5067334;28;20127;-67
2023/03/13 03:12:21;;;;;;;12.82;3.78;;;8.90;99.90;;;;;;5081149;28;20029;-67
2023/03/13 03:14:47;;;;;;;10.45;3.17;;;8.90;99.90;;;;;;5078555;28;20402;-68
2023/03/13 03:17:13;;;;;;;8.57;2.78;;;8.90;99.90;;;;;;5067691;28;20541;-67
2023/03/13 03:19:39;;;;;;;9.18;3.22;;;9.00;99.90;;;;;;5062991;28;20098;-67
2023/03/13 03:22:04;;;;;;;8.05;3.45;;;9.00;99.90;;;;;;5069121;28;20033;-67
2023/03/13 03:24:30;;;;;;;12.88;3.45;;;9.00;99.90;;;;;;5065462;28;20028;-68
2023/03/13 03:26:56;;;;;;;10.70;3.35;;;9.10;99.90;;;;;;5063102;28;20044;-67
2023/03/13 03:29:22;;;;;;;10.48;3.50;;;9.10;99.90;;;;;;5067877;28;20077;-67
2023/03/13 03:31:48;;;;;;;10.75;3.38;;;9.10;99.90;;;;;;5082238;28;20455;-68
2023/03/13 03:34:13;;;;;;;10.10;4.70;;;9.20;99.90;;;;;;5066852;28;20045;-67
2023/03/13 03:36:39;;;;;;;13.52;4.15;;;9.20;99.90;;;;;;5085430;28;20179;-66
2023/03/13 03:39:05;;;;;;;9.95;3.97;;;9.20;99.90;;;;;;5083642;28;20036;-67
2023/03/13 03:41:30;;;;;;;10.38;4.03;;;9.20;99.90;;;;;;5068232;28;20043;-68
2023/03/13 03:43:56;;;;;;;8.20;3.85;;;9.30;99.90;;;;;;5066258;28;20567;-68
2023/03/13 03:46:22;;;;;;;14.63;4.40;;;9.30;99.90;;;;;;5055649;28;20032;-68
2023/03/13 03:48:47;;;;;;;11.13;4.43;;;9.30;99.90;;;;;;5068550;28;20875;-68
2023/03/13 03:51:13;;;;;;;10.30;4.35;;;9.40;99.90;;;;;;5068679;28;20032;-68
2023/03/13 03:53:39;;;;;;;13.23;3.92;;;9.40;99.90;;;;;;5087961;28;20123;-68
2023/03/13 03:56:05;;;;;;;12.13;4.63;;;9.40;99.90;;;;;;5068684;28;20036;-68
2023/03/13 03:58:31;;;;;;;13.27;4.25;;;9.40;99.90;;;;;;5100330;28;20040;-68
2023/03/13 04:00:57;;;;;;;8.60;4.30;;;9.40;99.90;;;;;;5069392;28;20509;-68
2023/03/13 04:03:23;;;;;;;10.90;4.90;;;9.50;99.90;;;;;;5068345;28;20044;-68
2023/03/13 04:05:48;;;;;;;12.70;4.78;;;9.50;99.90;;;;;;5056187;28;20055;-68
2023/03/13 04:08:15;;;;;;;7.85;4.13;;;9.60;99.90;;;;;;5065733;28;20491;-69
2023/03/13 04:10:41;;;;;;;8.27;4.57;;;9.60;99.90;;;;;;5088408;28;20032;-68
2023/03/13 04:13:07;;;;;;;13.32;4.65;;;9.60;99.90;;;;;;5084676;28;20499;-69
2023/03/13 04:15:33;;;;;;;7.13;4.05;;;9.70;99.90;;;;;;5100914;28;20048;-69
2023/03/13 04:17:59;;;;;;;9.45;3.75;;;9.70;99.90;;;;;;5080953;28;20059;-69
2023/03/13 04:20:24;;;;;;;7.35;4.50;;;9.80;99.90;;;;;;5054454;28;20035;-68
2023/03/13 04:22:50;;;;;;;5.22;4.60;;;9.80;99.90;;;;;;5069775;28;20046;-68
2023/03/13 04:25:16;;;;;;;9.27;4.88;;;9.90;99.90;;;;;;5070929;28;20439;-68
2023/03/13 04:27:42;;;;;;;6.82;4.68;;;10.00;99.90;;;;;;5063361;28;20475;-70
2023/03/13 04:30:08;;;;;;;8.15;4.82;;;10.00;99.90;;;;;;5069364;28;20115;-68
2023/03/13 04:32:34;;;;;;;8.45;5.07;;;10.10;99.90;;;;;;5081099;28;20051;-69
2023/03/13 04:35:00;;;;;;;8.23;5.07;;;10.10;99.90;;;;;;5100122;28;20407;-68
2023/03/13 04:37:25;;;;;;;7.28;5.30;;;10.20;99.90;;;;;;5067330;28;20043;-70
2023/03/13 04:39:51;;;;;;;8.82;6.05;;;10.30;99.90;;;;;;5065564;28;20438;-69
2023/03/13 04:42:17;;;;;;;11.98;6.50;;;10.30;99.90;;;;;;5065090;28;20079;-69
2023/03/13 04:44:43;;;;;;;10.85;6.90;;;10.40;99.90;;;;;;5071130;28;20095;-68
2023/03/13 04:47:08;;;;;;;10.45;7.35;;;10.40;99.90;;;;;;5068822;28;20325;-68
2023/03/13 04:49:34;;;;;;;8.85;6.78;;;10.40;99.90;;;;;;5085392;28;20407;-68
2023/03/13 04:52:00;;;;;;;13.30;7.65;;;10.50;99.90;;;;;;5066147;28;20127;-69
2023/03/13 04:54:26;;;;;;;11.63;8.25;;;10.50;99.90;;;;;;5063385;28;20120;-68
2023/03/13 04:56:52;;;;;;;11.23;8.35;;;10.60;99.90;;;;;;5083142;28;20526;-68
2023/03/13 04:59:17;;;;;;;14.52;9.38;;;10.60;99.90;;;;;;5065553;28;20032;-69
2023/03/13 05:01:43;;;;;;;18.95;9.75;;;10.70;99.90;;;;;;5060760;28;20419;-69
2023/03/13 05:04:09;;;;;;;13.65;8.57;;;10.70;99.90;;;;;;5065520;28;20122;-70
2023/03/13 05:06:35;;;;;;;14.25;9.60;;;10.70;99.90;;;;;;5071313;28;20476;-69
2023/03/13 05:09:02;;;;;;;12.52;8.10;;;10.80;99.90;;;;;;5056887;28;20051;-69
2023/03/13 05:11:28;;;;;;;10.98;7.85;;;10.90;99.90;;;;;;5083346;28;20044;-68
2023/03/13 05:13:53;;;;;;;11.00;8.43;;;10.90;99.90;;;;;;5059479;28;20582;-68
2023/03/13 05:16:19;;;;;;;13.30;8.13;;;10.90;99.90;;;;;;5066239;28;20123;-68
2023/03/13 05:18:45;;;;;;;13.48;8.27;;;11.00;99.90;;;;;;5057213;28;20044;-69
2023/03/13 05:21:10;;;;;;;12.02;7.93;;;11.00;99.90;;;;;;5067777;28;20071;-68
2023/03/13 05:23:36;;;;;;;13.05;8.00;;;11.00;99.90;;;;;;5056038;28;20415;-68
2023/03/13 05:26:02;;;;;;;11.30;7.63;;;11.10;99.90;;;;;;5066430;28;20133;-69
2023/03/13 05:28:28;;;;;;;16.23;7.90;;;11.10;99.90;;;;;;5067138;28;20055;-68
2023/03/13 05:30:54;;;;;;;9.23;6.88;;;11.10;99.90;;;;;;5058335;28;20047;-69
2023/03/13 05:33:19;;;;;;;10.50;6.63;;;11.10;99.90;;;;;;5067437;28;20137;-69
2023/03/13 05:35:46;;;;;;;12.82;7.63;;;11.20;99.90;;;;;;5064693;28;20463;-69
2023/03/13 05:38:12;;;;;;;8.20;6.05;;;11.20;99.90;;;;;;5063282;28;20132;-69
2023/03/13 05:40:38;;;;;;;12.77;6.40;;;11.20;99.90;;;;;;5053337;28;20555;-69
2023/03/13 05:43:03;;;;;;;13.40;7.15;;;11.20;99.90;;;;;;5066576;28;20126;-69
2023/03/13 05:45:29;;;;;;;7.43;5.63;;;11.20;99.90;;;;;;5066875;28;20445;-68
2023/03/13 05:47:55;;;;;;;13.70;6.60;;;11.20;99.90;;;;;;5057690;28;20036;-68
2023/03/13 05:50:21;;;;;;;10.43;6.20;;;11.30;99.90;;;;;;5071388;28;20040;-68
2023/03/13 05:52:47;;;;;;;9.50;5.82;;;11.30;99.90;;;;;;5071234;28;20154;-70
2023/03/13 05:55:12;;;;;;;11.52;6.13;;;11.30;99.90;;;;;;5065108;28;20127;-69
2023/03/13 05:57:38;;;;;;;11.20;6.53;;;11.30;99.90;;;;;;5072694;28;20325;-70
2023/03/13 06:00:05;;;;;;;7.95;5.70;;;11.30;99.90;;;;;;5067163;28;20059;-70
2023/03/13 06:02:31;;;;;;;10.35;6.95;;;11.30;99.90;;;;;;5071070;28;20047;-69
2023/03/13 06:04:57;;;;;;;8.57;5.70;;;11.30;99.90;;;;;;5052646;28;20127;-69
2023/03/13 06:07:22;;;;;;;7.82;5.18;;;11.30;99.90;;;;;;5065529;28;20032;-69
2023/03/13 06:09:48;;;;;;;9.23;5.15;;;11.30;99.90;;;;;;5079294;28;20496;-70
2023/03/13 06:12:14;;;;;;;9.98;5.35;;;11.30;99.90;;;;;;5068788;28;20036;-68
2023/03/13 06:14:39;;;;;;;7.43;5.43;;;11.40;99.90;;;;;;5065543;28;20063;-69
2023/03/13 06:17:05;;;;;;;11.10;5.65;;;11.30;99.90;;;;;;5069815;28;20075;-69
2023/03/13 06:19:31;;;;;;;10.27;5.97;;;11.40;99.90;;;;;;5070400;28;20134;-69
2023/03/13 06:21:57;;;;;;;8.80;5.47;;;11.40;99.90;;;;;;5066041;28;20043;-70
2023/03/13 06:24:22;;;;;;;11.05;5.18;;;11.40;99.90;;;;;;5066869;28;20082;-69
2023/03/13 06:26:49;;;;;;;13.05;6.53;;;11.40;99.90;;;;;;5064491;28;20065;-69
2023/03/13 06:29:15;;;;;;;6.80;5.97;;;11.50;99.90;;;;;;5082154;28;20035;-69
2023/03/13 06:31:41;;;;;;;12.68;5.80;;;11.40;99.90;;;;;;5063588;28;20057;-70
2023/03/13 06:34:09;;;;;;;9.80;5.10;;;11.50;99.90;;;;;;5066992;28;20044;-69
2023/03/13 06:36:35;;;;;;;10.48;5.90;;;11.50;99.90;;;;;;5049464;28;20048;-70
2023/03/13 06:39:01;;;;;;;12.98;5.63;;;11.50;99.90;;;;;;5060833;28;20039;-69
2023/03/13 06:41:26;;;;;;;16.90;5.95;;;11.50;99.90;;;;;;5071004;28;20040;-68
2023/03/13 06:43:52;;;;;;;14.00;5.65;;;11.60;99.90;;;;;;5081595;28;20043;-69
2023/03/13 06:46:21;;;;;;;13.77;5.18;;;11.60;99.90;;;;;;5057073;28;20032;-69
2023/03/13 06:48:47;;;;;;;14.70;5.20;;;11.60;99.90;;;;;;5071418;28;20043;-69
2023/03/13 06:51:14;;;;;;;11.80;4.90;;;11.50;99.90;;;;;;5066025;28;20039;-68
2023/03/13 06:53:40;;;;;;;14.35;4.55;;;11.60;99.90;;;;;;5068323;28;20044;-68
2023/03/13 06:56:07;;;;;;;13.13;5.00;;;11.60;99.90;;;;;;5062508;28;20126;-70
2023/03/13 06:58:33;;;;;;;10.10;4.22;;;11.60;99.90;;;;;;5074458;28;20051;-71
2023/03/13 07:01:05;;;;;;;10.65;4.30;;;11.60;99.90;;;;;;5069739;28;20108;-71
2023/03/13 07:03:30;;;;;;;12.75;4.30;;;11.60;99.90;;;;;;5072792;28;20087;-71
2023/03/13 07:05:58;;;;;;;16.00;4.53;;;11.60;99.90;;;;;;5077132;28;20471;-71
2023/03/13 07:08:24;;;;;;;12.38;4.25;;;11.60;99.90;;;;;;5074058;28;20099;-72
2023/03/13 07:10:51;;;;;;;11.82;4.07;;;11.70;99.90;;;;;;5072795;28;20036;-72
2023/03/13 07:13:21;;;;;;;9.15;4.07;;;11.60;99.90;;;;;;5075793;28;20043;-71
2023/03/13 07:15:50;;;;;;;11.30;4.28;;;11.60;99.90;;;;;;5074590;28;20060;-71
2023/03/13 07:18:16;;;;;;;8.95;4.40;;;11.60;99.90;;;;;;5082942;28;20664;-68
2023/03/13 07:20:42;;;;;;;11.43;3.78;;;11.70;99.90;;;;;;5065273;28;20078;-68
2023/03/13 07:23:07;;;;;;;11.38;3.90;;;11.70;99.90;;;;;;5063420;28;20035;-68
2023/03/13 07:25:33;;;;;;;8.55;3.75;;;11.70;99.90;;;;;;5061126;28;20036;-68
2023/03/13 07:28:00;;;;;;;8.13;3.40;;;11.70;99.90;;;;;;5059962;28;20464;-67
2023/03/13 07:30:26;;;;;;;13.63;4.00;;;11.70;99.90;;;;;;5065401;28;20471;-70
2023/03/13 07:32:52;;;;;;;6.18;3.47;;;11.70;99.90;;;;;;5071293;28;20153;-68
2023/03/13 07:35:18;;;;;;;10.23;3.15;;;11.80;99.90;;;;;;5087135;28;20509;-68
2023/03/13 07:37:44;;;;;;;9.88;3.67;;;11.80;99.90;;;;;;5070695;28;20090;-68
2023/03/13 07:40:11;;;;;;;12.20;3.53;;;11.80;99.90;;;;;;5065335;28;20510;-68
2023/03/13 07:42:41;;;;;;;6.88;3.03;;;11.90;99.90;;;;;;5063959;28;20117;-68
2023/03/13 07:45:08;;;;;;;9.90;3.45;;;11.90;99.90;;;;;;5060176;28;20045;-66
2023/03/13 07:47:34;;;;;;;7.75;3.60;;;11.90;99.90;;;;;;5062688;28;20051;-67
2023/03/13 07:50:00;;;;;;;9.55;2.72;;;11.90;99.90;;;;;;5080940;28;20040;-66
2023/03/13 07:52:26;;;;;;;7.93;3.05;;;12.00;99.90;;;;;;5067357;28;20047;-67
2023/03/13 07:54:53;;;;;;;10.73;3.47;;;12.00;99.90;;;;;;5049635;28;20128;-66
2023/03/13 07:57:19;;;;;;;8.65;3.00;;;12.00;99.90;;;;;;5074095;28;20039;-66
2023/03/13 07:59:45;;;;;;;10.40;3.42;;;12.00;99.90;;;;;;5084394;28;20610;-67
2023/03/13 08:02:12;;;;;;;9.00;3.35;;;12.00;99.90;;;;;;5063528;28;20124;-68
2023/03/13 08:04:39;;;;;;;9.23;3.03;;;12.00;99.90;;;;;;5069646;28;20040;-68
2023/03/13 08:07:10;;;;;;;8.77;2.80;;;12.00;99.90;;;;;;5065083;28;20403;-69
2023/03/13 08:09:36;;;;;;;9.73;3.30;;;12.00;99.90;;;;;;5100305;28;20044;-68
2023/03/13 08:12:03;;;;;;;10.48;3.47;;;11.90;99.90;;;;;;5064786;28;20031;-68
2023/03/13 08:14:29;;;;;;;11.88;3.22;;;11.90;99.90;;;;;;5051778;28;20514;-69
2023/03/13 08:16:54;;;;;;;8.80;3.03;;;11.80;99.90;;;;;;5065099;28;20032;-69
2023/03/13 08:19:20;;;;;;;8.55;3.10;;;11.80;99.90;;;;;;5068937;28;20024;-68
2023/03/13 08:21:46;;;;;;;11.02;3.58;;;11.80;99.90;;;;;;5065664;28;20036;-69
2023/03/13 08:24:11;;;;;;;6.35;3.00;;;11.70;99.90;;;;;;5070810;28;20055;-70
2023/03/13 08:26:40;;;;;;;8.68;2.90;;;11.80;99.90;;;;;;5073643;28;20494;-69
2023/03/13 08:29:11;;;;;;;7.65;2.80;;;11.70;99.90;;;;;;5069478;28;20031;-70
2023/03/13 08:31:48;;;;;;;7.38;2.63;;;11.80;99.90;;;;;;5073648;28;20125;-69
2023/03/13 08:34:15;;;;;;;8.30;3.35;;;11.80;99.90;;;;;;5051108;28;20450;-69
2023/03/13 08:36:41;;;;;;;9.77;2.90;;;11.80;99.90;;;;;;5068011;28;20479;-69
2023/03/13 08:39:17;;;;;;;7.38;2.70;;;11.80;99.90;;;;;;5070540;28;20043;-69
2023/03/13 08:41:43;;;;;;;9.02;3.72;;;11.80;99.90;;;;;;5066572;28;20395;-69
2023/03/13 08:44:15;;;;;;;8.60;3.00;;;11.90;99.90;;;;;;5072663;28;20071;-68
2023/03/13 08:46:42;;;;;;;9.07;3.10;;;11.90;99.90;;;;;;5053768;28;20059;-69
2023/03/13 08:49:09;;;;;;;5.60;2.38;;;11.90;99.90;;;;;;5057390;28;20033;-69
2023/03/13 08:51:35;;;;;;;4.50;2.40;;;11.90;99.90;;;;;;5073186;28;20115;-68
2023/03/13 08:54:02;;;;;;;5.75;2.38;;;11.90;99.90;;;;;;5049589;28;20102;-68
2023/03/13 08:56:29;;;;;;;5.28;2.50;;;12.10;99.90;;;;;;5102571;28;20378;-68
2023/03/13 08:58:57;;;;;;;8.85;3.13;;;12.20;99.90;;;;;;5067992;28;20097;-68
2023/03/13 09:01:26;;;;;;;4.68;2.47;;;12.40;99.90;;;;;;5071303;28;20040;-67
2023/03/13 09:03:52;;;;;;;6.85;2.50;;;12.60;99.90;;;;;;5083286;28;20043;-67
2023/03/13 09:06:17;;;;;;;7.28;2.60;;;12.80;99.90;;;;;;5082221;28;20039;-67
2023/03/13 09:08:44;;;;;;;3.78;2.10;;;12.90;99.90;;;;;;5083833;28;20056;-67
2023/03/13 09:11:12;;;;;;;6.30;2.28;;;12.90;99.90;;;;;;5073632;28;20039;-67
2023/03/13 09:13:41;;;;;;;5.88;2.83;;;12.80;99.90;;;;;;5087898;28;20047;-70
2023/03/13 09:16:10;;;;;;;5.53;2.20;;;12.80;99.90;;;;;;5080946;28;20442;-70
2023/03/13 09:18:36;;;;;;;8.40;2.47;;;12.70;99.90;;;;;;5086191;28;20033;-70
2023/03/13 09:21:05;;;;;;;6.25;2.45;;;12.70;99.90;;;;;;5078559;28;20094;-69
2023/03/13 09:23:31;;;;;;;6.05;2.20;;;12.70;99.90;;;;;;5083616;28;20372;-69
2023/03/13 09:25:57;;;;;;;6.43;2.10;;;12.60;99.90;;;;;;5070999;28;20114;-69
2023/03/13 09:28:24;;;;;;;6.35;2.63;;;12.60;99.90;;;;;;5079423;28;20029;-69
2023/03/13 09:30:53;;;;;;;5.75;2.40;;;12.60;99.90;;;;;;5079933;28;20033;-69
2023/03/13 09:33:22;;;;;;;8.75;2.63;;;12.50;99.90;;;;;;5085926;28;20684;-69
2023/03/13 09:35:49;;;;;;;5.78;2.05;;;12.50;99.90;;;;;;5049183;28;20032;-69
2023/03/13 09:38:20;;;;;;;5.80;2.25;;;12.50;99.90;;;;;;5054889;28;20043;-69
2023/03/13 09:40:52;;;;;;;7.22;1.98;;;12.40;99.90;;;;;;5062233;28;20127;-66
2023/03/13 09:43:42;;;;;;;9.98;2.38;;;12.40;99.90;;;;;;5071079;28;20048;-67
2023/03/13 09:46:17;;;;;;;7.15;2.45;;;12.50;99.90;;;;;;5055204;28;20134;-66
2023/03/13 09:48:47;;;;;;;8.70;2.42;;;12.40;99.90;;;;;;5094802;28;20267;-68
2023/03/13 09:51:40;;;;;;;7.53;2.03;;;12.50;99.90;;;;;;5088758;28;20176;-66
2023/03/13 09:54:17;;;;;;;7.97;1.90;;;12.50;99.90;;;;;;5083342;28;20036;-67
2023/03/13 09:56:49;;;;;;;6.97;1.83;;;12.60;99.90;;;;;;5078864;28;20491;-67
2023/03/13 09:59:17;;;;;;;7.30;2.13;;;12.60;99.90;;;;;;5071587;28;20040;-67
2023/03/13 10:01:45;;;;;;;6.55;1.75;;;12.70;99.90;;;;;;5087397;28;20044;-66
2023/03/13 10:04:49;;;;;;;8.60;1.92;;;12.70;99.90;;;;;;5085550;28;20044;-66
2023/03/13 10:07:15;;;;;;;4.38;1.55;;;12.80;99.90;;;;;;4965192;28;20360;-66
2023/03/13 10:09:42;;;;;;;5.88;1.60;;;13.10;99.90;;;;;;5050479;28;20048;-67
2023/03/13 10:12:20;;;;;;;8.25;1.92;;;13.30;99.90;;;;;;5083197;28;20169;-68
2023/03/13 10:15:13;;;;;;;7.90;1.38;;;13.40;99.90;;;;;;5086659;28;20519;-67
2023/03/13 10:17:39;;;;;;;7.93;1.85;;;13.30;99.90;;;;;;5082881;28;20127;-68
2023/03/13 10:20:26;;;;;;;10.75;2.10;;;13.40;99.90;;;;;;5083983;28;20115;-68
2023/03/13 10:22:59;;;;;;;6.15;1.67;;;13.30;99.90;;;;;;5070390;28;20036;-68
2023/03/13 10:25:31;;;;;;;10.13;2.13;;;13.30;99.90;;;;;;5067944;28;20371;-68
2023/03/13 10:27:57;;;;;;;6.20;2.00;;;13.30;99.90;;;;;;5071797;28;20107;-67
2023/03/13 10:30:37;;;;;;;12.25;2.28;;;13.30;99.90;;;;;;5084564;28;20127;-67
2023/03/13 10:33:06;;;;;;;11.85;2.50;;;13.30;99.90;;;;;;5066993;28;20190;-67
2023/03/13 10:35:35;;;;;;;9.40;1.98;;;13.30;99.90;;;;;;5085705;28;20131;-68
2023/03/13 10:38:11;;;;;;;8.48;1.92;;;13.40;99.90;;;;;;5088266;28;20064;-65
2023/03/13 10:40:37;;;;;;;10.55;2.17;;;13.50;99.90;;;;;;5066442;28;20505;-65
2023/03/13 10:43:18;;;;;;;10.73;2.55;;;13.50;99.90;;;;;;5087890;28;20122;-65
2023/03/13 10:45:44;;;;;;;7.55;1.65;;;13.60;99.90;;;;;;5075822;28;20067;-66
2023/03/13 10:48:18;;;;;;;12.20;2.38;;;13.70;99.90;;;;;;5061677;28;20683;-67
2023/03/13 10:50:46;;;;;;;8.63;1.80;;;13.70;99.90;;;;;;5067292;28;20044;-66
2023/03/13 10:53:29;;;;;;;10.05;2.25;;;13.80;99.90;;;;;;5086781;28;20032;-66
2023/03/13 10:56:10;;;;;;;10.18;2.15;;;13.90;99.90;;;;;;5081841;28;20051;-66
2023/03/13 10:58:48;;;;;;;8.38;1.85;;;14.00;99.90;;;;;;5069963;28;20082;-66
2023/03/13 11:01:27;;;;;;;8.63;2.30;;;14.20;99.90;;;;;;5081288;28;20111;-66
2023/03/13 11:03:55;;;;;;;7.25;1.70;;;14.40;99.90;;;;;;5083369;28;20524;-66
2023/03/13 11:06:26;;;;;;;8.50;1.70;;;14.60;99.90;;;;;;5063388;28;20048;-66
2023/03/13 11:09:03;;;;;;;7.63;2.28;;;14.70;99.90;;;;;;5082517;28;20122;-66
2023/03/13 11:11:29;;;;;;;8.32;1.20;;;14.70;99.90;;;;;;5065335;28;20484;-66
2023/03/13 11:14:08;;;;;;;7.43;1.85;;;14.90;99.90;;;;;;5075299;28;20186;-65
2023/03/13 11:16:45;;;;;;;6.45;1.42;;;15.00;99.90;;;;;;5080630;28;20451;-65
2023/03/13 11:19:41;;;;;;;7.68;1.83;;;15.10;99.90;;;;;;5082649;28;20046;-66
2023/03/13 11:22:17;;;;;;;5.82;1.58;;;15.20;99.90;;;;;;5074911;28;20573;-64
2023/03/13 11:24:50;;;;;;;6.80;1.55;;;15.20;99.90;;;;;;5077711;28;20078;-64
2023/03/13 11:27:35;;;;;;;4.05;1.20;;;15.50;99.90;;;;;;5079624;28;20545;-64
2023/03/13 11:30:21;;;;;;;5.95;1.25;;;15.90;99.90;;;;;;5085512;28;20036;-65
2023/03/13 11:32:51;;;;;;;4.57;1.05;;;16.00;99.90;;;;;;5078105;28;20050;-64
2023/03/13 11:35:52;;;;;;;4.72;1.10;;;15.80;99.90;;;;;;5065041;28;20040;-65
2023/03/13 11:38:26;;;;;;;4.25;1.08;;;15.60;99.90;;;;;;5082852;28;20032;-65
2023/03/13 11:41:04;;;;;;;3.17;0.90;;;15.60;99.90;;;;;;5078498;28;20503;-64
2023/03/13 11:43:44;;;;;;;4.60;1.10;;;15.90;99.90;;;;;;5079091;28;20092;-65
2023/03/13 11:46:24;;;;;;;4.20;1.10;;;15.90;99.90;;;;;;5081491;28;20033;-64
2023/03/13 11:48:59;;;;;;;3.55;0.68;;;15.90;99.90;;;;;;5084966;28;20501;-65
2023/03/13 11:51:48;;;;;;;3.10;1.00;;;16.60;99.90;;;;;;5074752;28;20040;-64
2023/03/13 11:54:23;;;;;;;4.28;1.05;;;17.00;99.90;;;;;;5080540;28;20044;-65
2023/03/13 11:57:07;;;;;;;7.35;1.00;;;17.40;99.90;;;;;;5081840;28;20090;-65
2023/03/13 11:59:33;;;;;;;6.45;1.33;;;17.00;99.90;;;;;;5067384;28;20112;-65
2023/03/13 12:02:21;;;;;;;5.15;1.30;;;16.40;99.90;;;;;;5081759;28;20108;-65
2023/03/13 12:05:06;;;;;;;6.43;1.52;;;16.30;99.90;;;;;;5088958;28;20136;-66
2023/03/13 12:07:47;;;;;;;2.42;0.70;;;16.60;99.90;;;;;;5087861;28;20043;-65
2023/03/13 12:10:13;;;;;;;5.93;1.20;;;16.60;99.90;;;;;;5067235;28;20450;-64
2023/03/13 12:12:46;;;;;;;6.57;1.40;;;16.60;99.90;;;;;;5067225;28;20043;-65
2023/03/13 12:15:23;;;;;;;7.85;1.10;;;16.80;99.90;;;;;;5084813;28;20139;-65
2023/03/13 12:18:19;;;;;;;6.88;1.60;;;16.70;99.90;;;;;;5087165;28;20040;-65
2023/03/13 12:21:18;;;;;;;6.05;1.20;;;16.60;99.90;;;;;;5085939;28;20059;-65
2023/03/13 12:24:12;;;;;;;9.68;1.30;;;17.00;99.90;;;;;;5086180;28;20219;-66
2023/03/13 12:26:50;;;;;;;4.63;0.98;;;17.00;99.90;;;;;;5083508;28;20448;-65
2023/03/13 12:29:34;;;;;;;5.63;0.88;;;17.60;99.90;;;;;;5084936;28;20121;-65
2023/03/13 12:32:28;;;;;;;6.90;1.38;;;18.40;99.90;;;;;;5082698;28;20403;-65
2023/03/13 12:35:21;;;;;;;5.45;1.10;;;17.90;99.90;;;;;;5054789;28;20051;-66
2023/03/13 12:37:57;;;;;;;5.88;0.90;;;17.20;99.90;;;;;;5089960;28;20052;-65
2023/03/13 12:40:36;;;;;;;5.47;1.08;;;16.60;99.90;;;;;;5084164;28;20461;-66
2023/03/13 12:43:13;;;;;;;5.95;1.25;;;16.30;99.90;;;;;;5083608;28;20044;-65
2023/03/13 12:45:51;;;;;;;10.45;1.63;;;16.10;99.90;;;;;;5084366;28;20027;-65
2023/03/13 12:48:35;;;;;;;9.32;1.40;;;16.30;99.90;;;;;;5084340;28;20032;-65
2023/03/13 12:51:27;;;;;;;7.20;1.65;;;16.30;99.90;;;;;;5084923;28;20123;-65
2023/03/13 12:54:19;;;;;;;6.95;1.60;;;16.60;99.90;;;;;;5084108;28;20047;-65
2023/03/13 12:57:09;;;;;;;8.27;1.55;;;16.60;99.90;;;;;;5088496;28;20044;-66
2023/03/13 12:59:42;;;;;;;7.00;1.83;;;16.30;99.90;;;;;;5078775;28;20062;-66
2023/03/13 13:02:19;;;;;;;8.27;1.90;;;16.50;99.90;;;;;;5071714;28;20036;-65
2023/03/13 13:04:48;;;;;;;10.63;2.30;;;16.70;99.90;;;;;;5085813;28;20036;-65